sensor_id;sensor_type;location;lat;lon;timestamp;temperature;humidity
5520;DHT22;2782;52.362;10.012;2022-09-09T00:02:28;22.50;83.40
5520;DHT22;2782;52.362;10.012;2022-09-09T00:09:16;22.40;83.10
5520;DHT22;2782;52.362;10.012;2022-09-09T00:16:02;22.40;82.90
5520;DHT22;2782;52.362;10.012;2022-09-09T00:22:48;22.40;82.70
5520;DHT22;2782;52.362;10.012;2022-09-09T00:29:38;22.40;82.60
5520;DHT22;2782;52.362;10.012;2022-09-09T00:36:22;22.40;82.50
5520;DHT22;2782;52.362;10.012;2022-09-09T00:43:19;22.40;82.30
5520;DHT22;2782;52.362;10.012;2022-09-09T00:50:13;22.40;82.30
5520;DHT22;2782;52.362;10.012;2022-09-09T00:57:07;22.40;82.00
5520;DHT22;2782;52.362;10.012;2022-09-09T01:03:55;22.40;81.90
5520;DHT22;2782;52.362;10.012;2022-09-09T01:10:44;22.40;81.80
5520;DHT22;2782;52.362;10.012;2022-09-09T01:17:32;22.40;81.70
5520;DHT22;2782;52.362;10.012;2022-09-09T01:24:22;22.30;81.50
5520;DHT22;2782;52.362;10.012;2022-09-09T01:31:11;22.30;81.20
5520;DHT22;2782;52.362;10.012;2022-09-09T01:37:53;22.30;81.10
5520;DHT22;2782;52.362;10.012;2022-09-09T01:44:38;22.30;81.00
5520;DHT22;2782;52.362;10.012;2022-09-09T01:51:22;22.30;80.90
5520;DHT22;2782;52.362;10.012;2022-09-09T01:58:16;22.30;80.80
5520;DHT22;2782;52.362;10.012;2022-09-09T02:05:10;22.30;80.70
5520;DHT22;2782;52.362;10.012;2022-09-09T02:11:59;22.30;80.60
5520;DHT22;2782;52.362;10.012;2022-09-09T02:18:50;22.30;80.50
5520;DHT22;2782;52.362;10.012;2022-09-09T02:25:34;22.20;80.30
5520;DHT22;2782;52.362;10.012;2022-09-09T02:32:21;22.20;80.20
5520;DHT22;2782;52.362;10.012;2022-09-09T02:39:05;22.20;80.20
5520;DHT22;2782;52.362;10.012;2022-09-09T02:45:56;22.20;80.10
5520;DHT22;2782;52.362;10.012;2022-09-09T02:52:47;22.20;80.10
5520;DHT22;2782;52.362;10.012;2022-09-09T02:59:31;22.20;79.90
5520;DHT22;2782;52.362;10.012;2022-09-09T03:06:14;22.20;79.80
5520;DHT22;2782;52.362;10.012;2022-09-09T03:12:57;22.20;79.70
5520;DHT22;2782;52.362;10.012;2022-09-09T03:19:39;22.20;79.60
5520;DHT22;2782;52.362;10.012;2022-09-09T03:26:21;22.10;79.50
5520;DHT22;2782;52.362;10.012;2022-09-09T03:33:05;22.20;79.60
5520;DHT22;2782;52.362;10.012;2022-09-09T03:39:46;22.20;79.50
5520;DHT22;2782;52.362;10.012;2022-09-09T03:46:28;22.20;79.40
5520;DHT22;2782;52.362;10.012;2022-09-09T03:53:11;22.10;79.30
5520;DHT22;2782;52.362;10.012;2022-09-09T03:59:52;22.10;79.20
5520;DHT22;2782;52.362;10.012;2022-09-09T04:06:35;22.10;79.20
5520;DHT22;2782;52.362;10.012;2022-09-09T04:13:18;22.10;79.20
5520;DHT22;2782;52.362;10.012;2022-09-09T04:20:00;22.10;79.20
5520;DHT22;2782;52.362;10.012;2022-09-09T04:26:42;22.10;75.40
5520;DHT22;2782;52.362;10.012;2022-09-09T04:33:27;21.90;73.00
5520;DHT22;2782;52.362;10.012;2022-09-09T04:40:10;21.70;76.10
5520;DHT22;2782;52.362;10.012;2022-09-09T04:46:51;21.80;78.50
5520;DHT22;2782;52.362;10.012;2022-09-09T04:53:35;21.80;78.30
5520;DHT22;2782;52.362;10.012;2022-09-09T05:00:16;21.90;80.30
5520;DHT22;2782;52.362;10.012;2022-09-09T05:06:59;22.00;81.00
5520;DHT22;2782;52.362;10.012;2022-09-09T05:13:42;22.00;80.80
5520;DHT22;2782;52.362;10.012;2022-09-09T05:20:24;22.10;87.60
5520;DHT22;2782;52.362;10.012;2022-09-09T05:27:06;22.10;87.00
5520;DHT22;2782;52.362;10.012;2022-09-09T05:33:48;22.10;85.10
5520;DHT22;2782;52.362;10.012;2022-09-09T05:40:30;22.10;86.40
5520;DHT22;2782;52.362;10.012;2022-09-09T05:47:12;22.20;85.70
5520;DHT22;2782;52.362;10.012;2022-09-09T05:53:56;22.20;86.60
5520;DHT22;2782;52.362;10.012;2022-09-09T06:00:39;22.20;85.80
5520;DHT22;2782;52.362;10.012;2022-09-09T06:07:21;22.20;83.70
5520;DHT22;2782;52.362;10.012;2022-09-09T06:14:05;21.90;78.40
5520;DHT22;2782;52.362;10.012;2022-09-09T06:20:54;21.70;81.70
5520;DHT22;2782;52.362;10.012;2022-09-09T06:27:35;21.70;83.40
5520;DHT22;2782;52.362;10.012;2022-09-09T06:34:18;21.80;83.90
5520;DHT22;2782;52.362;10.012;2022-09-09T06:41:00;21.90;84.10
5520;DHT22;2782;52.362;10.012;2022-09-09T06:47:42;21.90;82.80
5520;DHT22;2782;52.362;10.012;2022-09-09T06:54:25;22.00;82.60
5520;DHT22;2782;52.362;10.012;2022-09-09T07:01:07;22.10;82.60
5520;DHT22;2782;52.362;10.012;2022-09-09T07:07:48;22.10;82.20
5520;DHT22;2782;52.362;10.012;2022-09-09T07:14:31;22.10;82.00
5520;DHT22;2782;52.362;10.012;2022-09-09T07:21:14;22.20;81.90
5520;DHT22;2782;52.362;10.012;2022-09-09T07:27:56;22.20;81.60
5520;DHT22;2782;52.362;10.012;2022-09-09T07:34:39;22.20;81.50
5520;DHT22;2782;52.362;10.012;2022-09-09T07:41:22;22.30;81.70
5520;DHT22;2782;52.362;10.012;2022-09-09T07:48:05;22.30;81.40
5520;DHT22;2782;52.362;10.012;2022-09-09T07:54:48;22.40;80.90
5520;DHT22;2782;52.362;10.012;2022-09-09T08:01:31;22.40;80.60
5520;DHT22;2782;52.362;10.012;2022-09-09T08:08:13;22.40;80.40
5520;DHT22;2782;52.362;10.012;2022-09-09T08:14:56;22.40;80.20
5520;DHT22;2782;52.362;10.012;2022-09-09T08:21:39;22.40;80.20
5520;DHT22;2782;52.362;10.012;2022-09-09T08:28:21;22.40;80.20
5520;DHT22;2782;52.362;10.012;2022-09-09T08:35:05;22.40;79.90
5520;DHT22;2782;52.362;10.012;2022-09-09T08:42:11;22.40;79.80
5520;DHT22;2782;52.362;10.012;2022-09-09T08:48:59;22.40;79.80
5520;DHT22;2782;52.362;10.012;2022-09-09T08:55:45;22.40;80.00
5520;DHT22;2782;52.362;10.012;2022-09-09T09:02:36;22.40;79.70
5520;DHT22;2782;52.362;10.012;2022-09-09T09:09:24;22.40;79.60
5520;DHT22;2782;52.362;10.012;2022-09-09T09:16:16;22.40;79.40
5520;DHT22;2782;52.362;10.012;2022-09-09T09:23:01;22.40;79.30
5520;DHT22;2782;52.362;10.012;2022-09-09T09:29:44;22.40;79.20
5520;DHT22;2782;52.362;10.012;2022-09-09T09:36:38;22.40;79.10
5520;DHT22;2782;52.362;10.012;2022-09-09T09:43:23;22.40;78.80
5520;DHT22;2782;52.362;10.012;2022-09-09T09:50:17;22.40;78.80
5520;DHT22;2782;52.362;10.012;2022-09-09T09:57:09;22.40;78.70
5520;DHT22;2782;52.362;10.012;2022-09-09T10:03:54;22.40;78.70
5520;DHT22;2782;52.362;10.012;2022-09-09T10:11:02;22.40;78.60
5520;DHT22;2782;52.362;10.012;2022-09-09T10:17:54;22.40;78.70
5520;DHT22;2782;52.362;10.012;2022-09-09T10:24:54;22.40;78.80
5520;DHT22;2782;52.362;10.012;2022-09-09T10:31:44;22.30;78.60
5520;DHT22;2782;52.362;10.012;2022-09-09T10:38:39;22.30;78.70
5520;DHT22;2782;52.362;10.012;2022-09-09T10:45:29;22.30;78.70
5520;DHT22;2782;52.362;10.012;2022-09-09T10:52:20;22.30;78.70
5520;DHT22;2782;52.362;10.012;2022-09-09T10:59:10;22.30;78.60
5520;DHT22;2782;52.362;10.012;2022-09-09T11:05:56;22.30;78.60
5520;DHT22;2782;52.362;10.012;2022-09-09T11:12:39;22.30;78.70
5520;DHT22;2782;52.362;10.012;2022-09-09T11:19:27;22.30;78.50
5520;DHT22;2782;52.362;10.012;2022-09-09T11:26:13;22.30;78.40
5520;DHT22;2782;52.362;10.012;2022-09-09T11:40:19;22.30;78.50
5520;DHT22;2782;52.362;10.012;2022-09-09T11:47:01;22.30;79.10
5520;DHT22;2782;52.362;10.012;2022-09-09T11:53:50;22.30;78.60
5520;DHT22;2782;52.362;10.012;2022-09-09T12:00:36;22.20;84.20
5520;DHT22;2782;52.362;10.012;2022-09-09T12:07:30;22.10;85.30
5520;DHT22;2782;52.362;10.012;2022-09-09T12:14:21;22.00;83.10
5520;DHT22;2782;52.362;10.012;2022-09-09T12:21:08;21.90;80.50
5520;DHT22;2782;52.362;10.012;2022-09-09T12:28:02;21.90;85.20
5520;DHT22;2782;52.362;10.012;2022-09-09T12:34:47;21.80;82.50
5520;DHT22;2782;52.362;10.012;2022-09-09T12:41:33;21.70;81.90
5520;DHT22;2782;52.362;10.012;2022-09-09T12:48:17;21.70;81.80
5520;DHT22;2782;52.362;10.012;2022-09-09T12:55:02;21.60;83.30
5520;DHT22;2782;52.362;10.012;2022-09-09T13:01:55;21.60;85.60
5520;DHT22;2782;52.362;10.012;2022-09-09T13:08:37;21.50;83.00
5520;DHT22;2782;52.362;10.012;2022-09-09T13:15:22;21.50;80.50
5520;DHT22;2782;52.362;10.012;2022-09-09T13:22:16;21.40;79.50
5520;DHT22;2782;52.362;10.012;2022-09-09T13:29:17;21.50;81.40
5520;DHT22;2782;52.362;10.012;2022-09-09T13:36:04;21.50;81.00
5520;DHT22;2782;52.362;10.012;2022-09-09T13:42:52;21.50;82.50
5520;DHT22;2782;52.362;10.012;2022-09-09T13:49:36;21.70;83.30
5520;DHT22;2782;52.362;10.012;2022-09-09T13:56:17;21.70;83.50
5520;DHT22;2782;52.362;10.012;2022-09-09T14:03:00;21.80;84.70
5520;DHT22;2782;52.362;10.012;2022-09-09T14:09:42;21.80;85.20
5520;DHT22;2782;52.362;10.012;2022-09-09T14:16:24;21.80;87.00
5520;DHT22;2782;52.362;10.012;2022-09-09T14:23:11;21.80;85.30
5520;DHT22;2782;52.362;10.012;2022-09-09T14:29:53;21.80;83.90
5520;DHT22;2782;52.362;10.012;2022-09-09T14:36:35;21.90;84.70
5520;DHT22;2782;52.362;10.012;2022-09-09T14:43:18;22.00;83.50
5520;DHT22;2782;52.362;10.012;2022-09-09T14:50:00;22.10;81.60
5520;DHT22;2782;52.362;10.012;2022-09-09T14:56:44;22.20;80.60
5520;DHT22;2782;52.362;10.012;2022-09-09T15:03:29;22.20;81.30
5520;DHT22;2782;52.362;10.012;2022-09-09T15:10:11;22.20;79.60
5520;DHT22;2782;52.362;10.012;2022-09-09T15:16:52;22.20;80.40
5520;DHT22;2782;52.362;10.012;2022-09-09T15:23:36;22.30;82.40
5520;DHT22;2782;52.362;10.012;2022-09-09T15:30:17;22.40;82.50
5520;DHT22;2782;52.362;10.012;2022-09-09T15:36:59;22.50;81.20
5520;DHT22;2782;52.362;10.012;2022-09-09T15:43:45;22.50;80.90
5520;DHT22;2782;52.362;10.012;2022-09-09T15:50:27;22.50;80.70
5520;DHT22;2782;52.362;10.012;2022-09-09T15:57:13;22.50;80.80
5520;DHT22;2782;52.362;10.012;2022-09-09T16:03:56;22.50;81.00
5520;DHT22;2782;52.362;10.012;2022-09-09T16:10:38;22.50;81.00
5520;DHT22;2782;52.362;10.012;2022-09-09T16:17:20;22.50;80.90
5520;DHT22;2782;52.362;10.012;2022-09-09T16:24:04;22.40;80.80
5520;DHT22;2782;52.362;10.012;2022-09-09T16:30:46;22.40;80.60
5520;DHT22;2782;52.362;10.012;2022-09-09T16:37:29;22.40;80.80
5520;DHT22;2782;52.362;10.012;2022-09-09T16:44:13;22.40;80.80
5520;DHT22;2782;52.362;10.012;2022-09-09T16:51:01;22.40;80.80
5520;DHT22;2782;52.362;10.012;2022-09-09T16:57:43;22.40;80.90
5520;DHT22;2782;52.362;10.012;2022-09-09T17:04:27;22.40;81.00
5520;DHT22;2782;52.362;10.012;2022-09-09T17:11:12;22.40;81.00
5520;DHT22;2782;52.362;10.012;2022-09-09T17:17:55;22.30;80.90
5520;DHT22;2782;52.362;10.012;2022-09-09T17:24:38;22.30;80.80
5520;DHT22;2782;52.362;10.012;2022-09-09T17:31:20;22.30;80.80
5520;DHT22;2782;52.362;10.012;2022-09-09T17:38:02;22.30;80.90
5520;DHT22;2782;52.362;10.012;2022-09-09T17:44:45;22.30;80.90
5520;DHT22;2782;52.362;10.012;2022-09-09T17:51:29;22.20;81.50
5520;DHT22;2782;52.362;10.012;2022-09-09T17:58:12;22.20;80.80
5520;DHT22;2782;52.362;10.012;2022-09-09T18:04:55;22.20;80.80
5520;DHT22;2782;52.362;10.012;2022-09-09T18:11:39;22.20;80.80
5520;DHT22;2782;52.362;10.012;2022-09-09T18:18:23;22.20;80.80
5520;DHT22;2782;52.362;10.012;2022-09-09T18:25:06;22.20;80.80
5520;DHT22;2782;52.362;10.012;2022-09-09T18:31:48;22.20;80.60
5520;DHT22;2782;52.362;10.012;2022-09-09T18:38:31;22.20;80.70
5520;DHT22;2782;52.362;10.012;2022-09-09T18:45:14;22.20;80.70
5520;DHT22;2782;52.362;10.012;2022-09-09T18:51:57;22.20;80.30
5520;DHT22;2782;52.362;10.012;2022-09-09T18:58:39;22.20;80.70
5520;DHT22;2782;52.362;10.012;2022-09-09T19:05:24;22.20;81.50
5520;DHT22;2782;52.362;10.012;2022-09-09T19:12:06;22.20;81.90
5520;DHT22;2782;52.362;10.012;2022-09-09T19:18:48;22.20;82.40
5520;DHT22;2782;52.362;10.012;2022-09-09T19:25:35;22.20;82.60
5520;DHT22;2782;52.362;10.012;2022-09-09T19:32:17;22.20;82.70
5520;DHT22;2782;52.362;10.012;2022-09-09T19:38:59;22.20;82.90
5520;DHT22;2782;52.362;10.012;2022-09-09T19:45:43;22.20;83.30
5520;DHT22;2782;52.362;10.012;2022-09-09T19:52:25;22.20;83.40
5520;DHT22;2782;52.362;10.012;2022-09-09T19:59:08;22.30;83.80
5520;DHT22;2782;52.362;10.012;2022-09-09T20:05:51;22.30;84.90
5520;DHT22;2782;52.362;10.012;2022-09-09T20:12:33;22.30;85.80
5520;DHT22;2782;52.362;10.012;2022-09-09T20:19:15;22.30;84.40
5520;DHT22;2782;52.362;10.012;2022-09-09T20:26:01;22.20;84.20
5520;DHT22;2782;52.362;10.012;2022-09-09T20:32:44;22.30;84.80
5520;DHT22;2782;52.362;10.012;2022-09-09T20:39:26;22.30;84.90
5520;DHT22;2782;52.362;10.012;2022-09-09T20:46:09;22.30;84.90
5520;DHT22;2782;52.362;10.012;2022-09-09T20:52:50;22.20;84.80
5520;DHT22;2782;52.362;10.012;2022-09-09T20:59:32;22.20;84.80
5520;DHT22;2782;52.362;10.012;2022-09-09T21:06:16;22.20;84.70
5520;DHT22;2782;52.362;10.012;2022-09-09T21:12:58;22.20;84.70
5520;DHT22;2782;52.362;10.012;2022-09-09T21:19:40;22.20;84.60
5520;DHT22;2782;52.362;10.012;2022-09-09T21:26:24;22.20;84.70
5520;DHT22;2782;52.362;10.012;2022-09-09T21:33:06;22.20;84.70
5520;DHT22;2782;52.362;10.012;2022-09-09T21:39:49;22.10;84.40
5520;DHT22;2782;52.362;10.012;2022-09-09T21:46:32;22.10;84.50
5520;DHT22;2782;52.362;10.012;2022-09-09T21:53:16;22.10;84.40
5520;DHT22;2782;52.362;10.012;2022-09-09T21:59:59;22.10;84.30
5520;DHT22;2782;52.362;10.012;2022-09-09T22:06:42;22.10;84.30
5520;DHT22;2782;52.362;10.012;2022-09-09T22:13:24;22.10;84.30
5520;DHT22;2782;52.362;10.012;2022-09-09T22:20:06;22.10;84.10
5520;DHT22;2782;52.362;10.012;2022-09-09T22:26:50;22.10;84.20
5520;DHT22;2782;52.362;10.012;2022-09-09T22:33:34;22.10;84.10
5520;DHT22;2782;52.362;10.012;2022-09-09T22:40:16;22.10;83.90
5520;DHT22;2782;52.362;10.012;2022-09-09T22:47:00;22.10;83.90
5520;DHT22;2782;52.362;10.012;2022-09-09T22:53:44;22.10;83.80
5520;DHT22;2782;52.362;10.012;2022-09-09T23:00:26;22.00;83.60
5520;DHT22;2782;52.362;10.012;2022-09-09T23:07:09;22.10;83.50
5520;DHT22;2782;52.362;10.012;2022-09-09T23:13:53;22.00;83.50
5520;DHT22;2782;52.362;10.012;2022-09-09T23:20:35;22.00;83.30
5520;DHT22;2782;52.362;10.012;2022-09-09T23:27:18;22.00;83.20
5520;DHT22;2782;52.362;10.012;2022-09-09T23:34:01;22.00;83.10
5520;DHT22;2782;52.362;10.012;2022-09-09T23:40:43;22.00;83.00
5520;DHT22;2782;52.362;10.012;2022-09-09T23:47:27;22.00;82.90
5520;DHT22;2782;52.362;10.012;2022-09-09T23:54:09;22.00;82.80
